Flight Track Log - Related Links

Times and Time Zones

All times are in EDT time to prevent confusion due to time zone crossing. See the CSC8978 flight status page for this flight to view local times or setup timezone preferences in your user account.

Time Position Orientation Groundspeed Altitude Reporting Facility
EDT Latitude Longitude Course Direction KTS MPH feet Rate Location/Type
Wed 06:05:00 AM 25.2348 121.1293 293° West  Level Estimated
Wed 06:06:00 AM 25.2677 121.0446 293° West  Level Estimated
Wed 06:07:00 AM 25.3006 120.9600 293° West  Level Estimated
Wed 06:08:00 AM 25.3334 120.8753 293° West  Level Estimated
Wed 06:09:00 AM 25.3662 120.7905 293° West  Level Estimated
Wed 06:10:00 AM 25.3989 120.7057 293° West  Level Estimated
Wed 06:11:00 AM 25.4316 120.6209 293° West  Level Estimated
Wed 06:12:00 AM 25.4643 120.5360 293° West  Level Estimated
Wed 06:13:00 AM 25.4968 120.4510 293° West  Level Estimated
Wed 06:14:00 AM 25.5294 120.3661 293° West  Level Estimated
Wed 06:15:00 AM 25.5619 120.2810 293° West  Level Estimated
Wed 06:16:00 AM 25.5943 120.1959 293° West  Level Estimated
Wed 06:17:00 AM 25.6267 120.1108 293° West  Level Estimated
Wed 06:18:00 AM 25.6590 120.0257 293° West  Level Estimated
Wed 06:19:00 AM 25.6913 119.9404 293° West  Level Estimated
Wed 06:20:00 AM 25.7236 119.8552 293° West  Level Estimated
Wed 06:21:00 AM 25.7558 119.7699 293° West  Level Estimated
Wed 06:22:00 AM 25.7879 119.6845 293° West  Level Estimated
Wed 06:23:00 AM 25.8200 119.5991 293° West  Level Estimated
Wed 06:24:00 AM 25.8520 119.5137 293° West  Level Estimated
Wed 06:25:00 AM 25.8840 119.4282 293° West  Level Estimated
Wed 06:26:00 AM 25.9160 119.3426 293° West  Level Estimated
Wed 06:27:00 AM 25.9478 119.2570 293° West  Level Estimated
Wed 06:28:00 AM 25.9797 119.1714 292° West  Level Estimated
Wed 06:29:00 AM 26.0115 119.0857 292° West  Level Estimated
Wed 06:30:00 AM 26.0432 119.0000 292° West  Level Estimated
Wed 06:31:00 AM 26.0749 118.9142 292° West  Level Estimated
Wed 06:32:00 AM 26.1066 118.8284 292° West  Level Estimated
Wed 06:33:00 AM 26.1381 118.7426 292° West  Level Estimated
Wed 06:34:00 AM 26.1697 118.6566 292° West  Level Estimated
Wed 06:35:00 AM 26.2012 118.5707 292° West  Level Estimated
Wed 06:36:00 AM 26.2326 118.4847 292° West  Level Estimated
Wed 06:37:00 AM 26.2640 118.3986 292° West  Level Estimated
Wed 06:38:00 AM 26.2953 118.3125 292° West  Level Estimated
Wed 06:39:00 AM 26.3266 118.2264 292° West  Level Estimated
Wed 06:40:00 AM 26.3578 118.1402 292° West  Level Estimated
Wed 06:41:00 AM 26.3890 118.0540 292° West  Level Estimated
Wed 06:42:00 AM 26.4201 117.9677 292° West  Level Estimated
Wed 06:43:00 AM 26.4512 117.8813 292° West  Level Estimated
Wed 06:44:00 AM 26.4822 117.7950 292° West  Level Estimated
Wed 06:45:00 AM 26.5132 117.7085 292° West  Level Estimated
Wed 06:46:00 AM 26.5441 117.6221 292° West  Level Estimated
Wed 06:47:00 AM 26.5750 117.5356 292° West  Level Estimated
Wed 06:48:00 AM 26.6058 117.4490 292° West  Level Estimated
Wed 06:49:00 AM 26.6366 117.3624 292° West  Level Estimated
Wed 06:50:00 AM 26.6673 117.2757 292° West  Level Estimated
Wed 06:51:00 AM 26.6979 117.1890 292° West  Level Estimated
Wed 06:52:00 AM 26.7285 117.1023 292° West  Level Estimated
Wed 06:53:00 AM 26.7591 117.0155 292° West  Level Estimated
Wed 06:54:00 AM 26.7896 116.9286 291° West  Level Estimated
Wed 06:55:00 AM 26.8200 116.8418 291° West  Level Estimated
Wed 06:56:00 AM 26.8504 116.7548 291° West  Level Estimated
Wed 06:57:00 AM 26.8807 116.6678 291° West  Level Estimated
Wed 06:58:00 AM 26.9110 116.5808 291° West  Level Estimated
Wed 06:59:00 AM 26.9413 116.4937 291° West  Level Estimated
Wed 07:00:00 AM 26.9714 116.4066 291° West  Level Estimated
Wed 07:01:00 AM 27.0016 116.3195 291° West  Level Estimated
Wed 07:02:00 AM 27.0316 116.2322 291° West  Level Estimated
Wed 07:03:00 AM 27.0616 116.1450 291° West  Level Estimated
Wed 07:04:00 AM 27.0916 116.0577 291° West  Level Estimated
Wed 07:05:00 AM 27.1215 115.9703 291° West  Level Estimated
Wed 07:06:00 AM 27.1514 115.8829 291° West  Level Estimated
Wed 07:07:00 AM 27.1812 115.7955 291° West  Level Estimated
Wed 07:08:00 AM 27.2109 115.7080 291° West  Level Estimated
Wed 07:09:00 AM 27.2406 115.6204 291° West  Level Estimated
Wed 07:10:00 AM 27.2703 115.5328 291° West  Level Estimated
Wed 07:11:00 AM 27.2999 115.4452 291° West  Level Estimated
Wed 07:12:00 AM 27.3294 115.3575 291° West  Level Estimated
Wed 07:13:00 AM 27.3589 115.2698 291° West  Level Estimated
Wed 07:14:00 AM 27.3883 115.1820 291° West  Level Estimated
Wed 07:15:00 AM 27.4176 115.0942 291° West  Level Estimated
Wed 07:16:00 AM 27.4469 115.0063 291° West  Level Estimated
Wed 07:17:00 AM 27.4762 114.9184 291° West  Level Estimated
Wed 07:18:00 AM 27.5054 114.8304 291° West  Level Estimated
Wed 07:19:00 AM 27.5345 114.7424 290° West  Level Estimated
Wed 07:20:00 AM 27.5636 114.6544 290° West  Level Estimated
Wed 07:21:00 AM 27.5927 114.5663 290° West  Level Estimated
Wed 07:22:00 AM 27.6216 114.4781 290° West  Level Estimated
Wed 07:23:00 AM 27.6506 114.3899 290° West  Level Estimated
Wed 07:24:00 AM 27.6794 114.3017 290° West  Level Estimated
Wed 07:25:00 AM 27.7082 114.2134 290° West  Level Estimated
Wed 07:26:00 AM 27.7370 114.1251 290° West  Level Estimated
Wed 07:27:00 AM 27.7657 114.0367 290° West  Level Estimated
Wed 07:28:00 AM 27.7943 113.9482 290° West  Level Estimated
Wed 07:29:00 AM 27.8229 113.8598 290° West  Level Estimated
Wed 07:30:00 AM 27.8514 113.7713 290° West  Level Estimated
Wed 07:31:00 AM 27.8799 113.6827 290° West  Level Estimated
Wed 07:32:00 AM 27.9083 113.5941 290° West  Level Estimated
Wed 07:33:00 AM 27.9367 113.5054 290° West  Level Estimated
Wed 07:34:00 AM 27.9650 113.4167 290° West  Level Estimated
Wed 07:35:00 AM 27.9932 113.3279 290° West  Level Estimated
Wed 07:36:00 AM 28.0214 113.2392 290° West  Level Estimated
Wed 07:37:00 AM 28.0495 113.1503 290° West  Level Estimated
Wed 07:38:00 AM 28.0776 113.0614 290° West  Level Estimated
Wed 07:39:00 AM 28.1056 112.9725 290° West  Level Estimated
Wed 07:40:00 AM 28.1336 112.8835 290° West  Level Estimated
Wed 07:41:00 AM 28.1615 112.7944 290° West  Level Estimated
Wed 07:42:00 AM 28.1893 112.7054 290° West  Level Estimated
Wed 07:43:00 AM 28.2171 112.6162 290° West  Level Estimated
Wed 07:44:00 AM 28.2449 112.5271 289° West  Level Estimated
Wed 07:45:00 AM 28.2725 112.4379 289° West  Level Estimated
Wed 07:46:00 AM 28.3001 112.3486 289° West  Level Estimated
Wed 07:47:00 AM 28.3277 112.2593 289° West  Level Estimated
Wed 07:48:00 AM 28.3552 112.1699 289° West  Level Estimated
Wed 07:49:00 AM 28.3826 112.0805 289° West  Level Estimated
Wed 07:50:00 AM 28.4100 111.9911 289° West  Level Estimated
Wed 07:51:00 AM 28.4373 111.9016 289° West  Level Estimated
Wed 07:52:00 AM 28.4646 111.8120 289° West  Level Estimated
Wed 07:53:00 AM 28.4918 111.7225 289° West  Level Estimated
Wed 07:54:00 AM 28.5189 111.6328 289° West  Level Estimated
Wed 07:55:00 AM 28.5460 111.5431 289° West  Level Estimated
Wed 07:56:00 AM 28.5730 111.4534 289° West  Level Estimated
Wed 07:57:00 AM 28.6000 111.3636 289° West  Level Estimated
Wed 07:58:00 AM 28.6269 111.2738 289° West  Level Estimated
Wed 07:59:00 AM 28.6538 111.1840 289° West  Level Estimated
Wed 08:00:00 AM 28.6806 111.0940 289° West  Level Estimated
Wed 08:01:00 AM 28.7073 111.0041 289° West  Level Estimated
Wed 08:02:00 AM 28.7340 110.9141 289° West  Level Estimated
Wed 08:03:00 AM 28.7606 110.8240 289° West  Level Estimated
Wed 08:04:00 AM 28.7871 110.7339 289° West  Level Estimated
Wed 08:05:00 AM 28.8136 110.6438 289° West  Level Estimated
Wed 08:06:00 AM 28.8401 110.5536 289° West  Level Estimated
Wed 08:07:00 AM 28.8664 110.4634 288° West  Level Estimated
Wed 08:08:00 AM 28.8927 110.3731 288° West  Level Estimated
Wed 08:09:00 AM 28.9190 110.2828 288° West  Level Estimated
Wed 08:10:00 AM 28.9452 110.1924 288° West  Level Estimated
Wed 08:11:00 AM 28.9713 110.1020 288° West  Level Estimated
Wed 08:12:00 AM 28.9974 110.0115 288° West  Level Estimated
Wed 08:13:00 AM 29.0234 109.9210 288° West  Level Estimated
Wed 08:14:00 AM 29.0494 109.8305 288° West  Level Estimated
Wed 08:15:00 AM 29.0752 109.7399 288° West  Level Estimated
Wed 08:16:00 AM 29.1011 109.6492 288° West  Level Estimated
Wed 08:17:00 AM 29.1268 109.5585 288° West  Level Estimated
Wed 08:18:00 AM 29.1525 109.4678 288° West  Level Estimated
Wed 08:19:00 AM 29.1782 109.3770 288° West  Level Estimated
Wed 08:20:00 AM 29.2038 109.2862 288° West  Level Estimated
Wed 08:21:00 AM 29.2293 109.1954 288° West  Level Estimated
Wed 08:22:00 AM 29.2547 109.1044 288° West  Level Estimated
Wed 08:23:00 AM 29.2801 109.0135 288° West  Level Estimated
Wed 08:24:00 AM 29.3055 108.9225 288° West  Level Estimated
Wed 08:25:00 AM 29.3308 108.8314 288° West  Level Estimated
Wed 08:26:00 AM 29.3560 108.7403 288° West  Level Estimated
Wed 08:27:00 AM 29.3811 108.6492 288° West  Level Estimated
Wed 08:28:00 AM 29.4062 108.5580 288° West  Level Estimated
Wed 08:29:00 AM 29.4312 108.4668 288° West  Level Estimated
Wed 08:30:00 AM 29.4562 108.3755 287° West  Level Estimated
Wed 08:31:00 AM 29.4811 108.2842 287° West  Level Estimated
Wed 08:32:00 AM 29.5060 108.1928 287° West  Level Estimated
Wed 08:33:00 AM 29.5307 108.1014 287° West  Level Estimated
Wed 08:34:00 AM 29.5555 108.0099 287° West  Level Estimated
Wed 08:35:00 AM 29.5801 107.9184 287° West  Level Estimated
Wed 08:36:00 AM 29.6047 107.8269 287° West  Level Estimated
Wed 08:37:00 AM 29.6292 107.7353 287° West  Level Estimated
Wed 08:38:00 AM 29.6537 107.6437 287° West  Level Estimated
Wed 08:39:00 AM 29.6781 107.5520 287° West  Level Estimated
Wed 08:40:00 AM 29.7024 107.4603 287° West  Level Estimated
Wed 08:41:00 AM 29.7267 107.3685 287° West  Level Estimated
Wed 08:42:00 AM 29.7509 107.2767 287° West  Level Estimated
Wed 08:43:00 AM 29.7751 107.1849 287° West  Level Estimated
Wed 08:44:00 AM 29.7992 107.0930 287° West  Level Estimated
Wed 08:45:00 AM 29.8232 107.0010 287° West  Level Estimated
Wed 08:46:00 AM 29.8471 106.9090 287° West  Level Estimated
Wed 08:47:00 AM 29.8710 106.8170 287° West  Level Estimated
Wed 08:48:00 AM 29.8948 106.7249 287° West  Level Estimated
Wed 08:49:00 AM 29.9186 106.6328 287° West  Level Estimated
Wed 08:50:00 AM 29.9423 106.5406 287° West  Level Estimated
Wed 08:51:00 AM 29.9660 106.4484 287° West  Level Estimated
Wed 08:52:00 AM 29.9895 106.3562 286° West  Level Estimated
Wed 08:53:00 AM 30.0130 106.2639 286° West  Level Estimated
Wed 08:54:00 AM 30.0365 106.1715 286° West  Level Estimated
Wed 08:55:00 AM 30.0599 106.0792 286° West  Level Estimated
Wed 08:56:00 AM 30.0832 105.9867 286° West  Level Estimated
Wed 08:57:00 AM 30.1064 105.8943 286° West  Level Estimated
Wed 08:58:00 AM 30.1296 105.8018 286° West  Level Estimated
Wed 08:59:00 AM 30.1527 105.7092 286° West  Level Estimated
Wed 09:00:00 AM 30.1758 105.6166 286° West  Level Estimated
Wed 09:01:00 AM 30.1988 105.5240 286° West  Level Estimated
Wed 09:02:00 AM 30.2217 105.4313 286° West  Level Estimated
Wed 09:03:00 AM 30.2446 105.3385 286° West  Level Estimated
Wed 09:04:00 AM 30.2674 105.2458 286° West  Level Estimated
Wed 09:05:00 AM 30.2901 105.1530 286° West  Level Estimated
Wed 09:06:00 AM 30.3128 105.0601 286° West  Level Estimated
Wed 09:07:00 AM 30.3354 104.9672 286° West  Level Estimated
Wed 09:08:00 AM 30.3579 104.8743 286° West  Level Estimated
Wed 09:09:00 AM 30.3804 104.7813 286° West  Level Estimated
Wed 09:10:00 AM 30.4028 104.6882 286° West  Level Estimated
Wed 09:11:00 AM 30.4251 104.5952 286° West  Level Estimated
Wed 09:12:00 AM 30.4474 104.5021 286° West  Level Estimated
Wed 09:13:00 AM 30.4696 104.4089 285° West  Level Estimated
Wed 09:14:00 AM 30.4917 104.3157 285° West  Level Estimated
Wed 09:15:00 AM 30.5138 104.2225 285° West  Level Estimated
Wed 09:16:00 AM 30.5358 104.1292 285° West  Level Estimated
Wed 09:17:00 AM 30.5577 104.0359 285° West  Level Estimated
Wed 09:18:00 AM 30.5785 103.9471 285° West  Level Estimated
Wed 09:19:00 AM 30.5785 103.9471 North  Level Estimated
Wed 09:20:00 AM 30.5785 103.9471 North  Level Estimated
Wed 09:21:00 AM 30.5785 103.9471 North  Level Estimated
Wed 09:22:00 AM 30.5785 103.9471 North  Level Estimated
Wed 09:23:00 AM 30.5785 103.9471 North  Level Estimated
Wed 09:24:00 AM 30.5785 103.9471 North  Level Estimated
Wed 09:25:00 AM 30.5785 103.9471 North  Level Estimated
Wed 09:26:00 AM 30.5785 103.9471 North  Level Estimated
Wed 09:27:00 AM 30.5785 103.9471 North  Level Estimated
Wed 09:28:00 AM 30.5785 103.9471 North  Level Estimated
Wed 09:29:00 AM 30.5785 103.9471 North  Level Estimated
Wed 09:30:00 AM 30.5785 103.9471 North  Level Estimated
Wed 09:31:00 AM 30.5785 103.9471 North  Level Estimated
Wed 09:32:00 AM 30.5785 103.9471 North  Level Estimated
Wed 09:33:00 AM 30.5785 103.9471 North  Level Estimated
Wed 09:34:00 AM 30.5785 103.9471 North  Level Estimated

Login

Don't have an account? Register now (free) for customized features, flight alerts, and more!